Date,TemperatureHighF,TemperatureAvgF,TemperatureLowF,DewpointHighF,DewpointAvgF,DewpointLowF,HumidityHigh,HumidityAvg,HumidityLow,PressureMaxIn,PressureMinIn,WindSpeedMaxMPH,WindSpeedAvgMPH,GustSpeedMaxMPH,PrecipitationSumIn
2013-5-1,65.5,59.4,52.6,56.7,54.5,51.8,98,85,68,30.32,30.19,19,2,19,0.00
2013-5-2,60.4,56.4,52.3,56.5,54.1,51.5,97,92,84,30.33,30.25,11,2,11,0.25
2013-5-3,63.0,57.7,53.8,54.4,51.7,48.5,97,81,65,30.27,30.13,21,3,21,0.00
2013-5-4,59.2,53.2,48.5,50.2,46.1,42.2,95,77,65,30.16,30.02,21,5,21,0.01
2013-5-5,55.3,49.4,46.1,54.7,48.4,44.5,98,96,92,30.08,29.86,21,4,22,2.70
2013-5-6,69.5,58.4,47.6,59.7,52.2,40.8,99,83,37,29.91,29.82,23,2,23,1.34
2013-5-7,68.4,54.6,43.8,57.4,50.0,43.3,99,86,49,29.96,29.87,8,0,8,0.18
2013-5-8,75.3,60.1,50.0,59.3,54.8,49.7,99,85,51,30.03,29.93,10,0,10,0.06
2013-5-9,83.0,65.3,47.2,59.2,54.0,46.6,99,72,36,30.09,30.01,10,1,10,4.29
2013-5-10,84.7,67.8,50.4,64.2,56.9,49.5,98,72,41,30.08,29.94,18,2,18,0.00
2013-5-11,79.5,68.5,59.1,63.0,60.2,57.1,98,77,50,29.95,29.77,22,1,22,0.56
2013-5-12,69.0,59.8,47.0,60.6,44.2,31.8,99,63,27,30.06,29.85,21,2,21,0.56
2013-5-13,69.3,53.7,35.3,43.0,33.9,25.0,96,53,20,30.21,30.06,17,1,17,0.00
2013-5-14,76.8,57.1,35.3,50.7,41.1,34.3,97,61,28,30.28,30.07,16,1,16,0.56
2013-5-15,94.0,72.0,48.7,62.3,55.4,47.0,96,62,27,30.07,29.92,17,1,17,0.56
2013-5-16,89.0,72.5,59.6,64.5,57.1,48.9,94,62,28,30.01,29.93,13,1,13,0.00
2013-5-17,84.8,70.1,53.8,63.4,58.9,53.1,98,72,40,30.08,29.99,12,1,12,0.00
2013-5-18,70.3,65.3,60.0,67.8,63.5,58.8,98,94,88,30.15,30.05,9,0,9,0.29
2013-5-19,80.3,69.5,64.3,69.9,66.0,63.7,98,90,67,30.11,30.00,10,1,10,0.54
2013-5-20,83.5,71.0,63.2,69.7,66.1,62.6,99,86,56,30.14,30.00,7,1,7,0.31
2013-5-21,87.7,72.7,59.8,71.1,65.6,59.3,99,81,49,30.05,29.91,11,1,11,0.00
2013-5-22,85.5,68.5,60.6,71.1,64.4,59.7,98,88,52,30.00,29.89,14,1,14,1.71
2013-5-23,81.8,69.2,60.9,68.8,63.3,56.2,99,83,56,29.99,29.81,10,1,10,0.20
2013-5-24,70.3,62.5,45.7,58.7,46.8,35.1,95,60,28,30.22,29.88,25,4,25,0.00
2013-5-25,79.7,59.9,38.8,49.2,41.8,35.6,98,59,22,30.32,30.17,12,1,12,0.00
2013-5-26,78.7,63.7,53.0,55.6,50.0,43.0,93,64,32,30.29,30.16,9,1,9,0.00
2013-5-27,82.5,66.9,48.8,60.5,55.5,48.0,98,71,39,30.29,30.12,11,1,11,0.00
2013-5-28,85.5,71.5,56.1,66.0,61.1,55.1,97,73,49,30.20,30.12,15,1,15,0.00
2013-5-29,87.3,73.6,59.0,67.1,62.0,57.3,95,70,44,30.22,30.13,14,1,14,0.00
2013-5-30,85.5,71.0,56.4,67.9,61.7,55.5,98,75,46,30.27,30.16,13,1,13,0.00
2013-5-31,86.0,72.8,58.8,68.1,62.7,58.0,98,74,46,30.22,30.10,12,1,12,0.00